Time;durP1;ratioP1;P1;durP2;ratioP2;P2;SDS_P1;SDS_P2;PMS_P1;PMS_P2;Temp;Humidity;BMP_temperature;BMP_pressure;BME280_temperature;BME280_humidity;BME280_pressure;Samples;Min_cycle;Max_cycle;Signal;HPM_P1;HPM_P2
2023/03/05 00:01:08;;;;;;;10.35;3.80;;;3.50;99.90;;;;;;5062048;28;20044;-70
2023/03/05 00:03:34;;;;;;;5.18;1.88;;;3.50;99.90;;;;;;5061022;28;20028;-71
2023/03/05 00:05:59;;;;;;;10.20;2.15;;;3.50;99.90;;;;;;5067769;28;20044;-70
2023/03/05 00:08:26;;;;;;;4.43;2.00;;;3.50;99.90;;;;;;5066936;28;20506;-70
2023/03/05 00:11:04;;;;;;;7.05;2.00;;;3.50;99.90;;;;;;5066623;28;21074;-70
2023/03/05 00:13:30;;;;;;;8.93;1.92;;;3.40;99.90;;;;;;5057969;28;20080;-70
2023/03/05 00:15:55;;;;;;;5.88;1.73;;;3.40;99.90;;;;;;5060292;28;20554;-70
2023/03/05 00:18:22;;;;;;;4.57;1.85;;;3.40;99.90;;;;;;5062187;28;20036;-70
2023/03/05 00:20:48;;;;;;;5.50;1.90;;;3.40;99.90;;;;;;5058602;28;20040;-70
2023/03/05 00:23:14;;;;;;;6.43;2.03;;;3.40;99.90;;;;;;5060120;28;20458;-70
2023/03/05 00:25:40;;;;;;;7.13;1.90;;;3.40;99.90;;;;;;5029686;28;20466;-70
2023/03/05 00:28:06;;;;;;;5.93;2.13;;;3.40;99.90;;;;;;5044378;28;20036;-70
2023/03/05 00:30:33;;;;;;;7.32;2.10;;;3.40;99.90;;;;;;5045752;28;20040;-70
2023/03/05 00:32:59;;;;;;;5.82;1.92;;;3.40;99.90;;;;;;5045082;28;20036;-70
2023/03/05 00:35:25;;;;;;;6.65;1.92;;;3.30;99.90;;;;;;5029438;28;20040;-70
2023/03/05 00:37:51;;;;;;;7.80;2.17;;;3.30;99.90;;;;;;5029494;28;20102;-70
2023/03/05 00:40:17;;;;;;;4.63;2.17;;;3.30;99.90;;;;;;5027684;28;20189;-71
2023/03/05 00:42:43;;;;;;;4.00;2.10;;;3.30;99.90;;;;;;5042848;28;20060;-70
2023/03/05 00:45:10;;;;;;;8.75;2.60;;;3.30;99.90;;;;;;5029002;28;20150;-71
2023/03/05 00:47:36;;;;;;;7.45;2.50;;;3.20;99.90;;;;;;5032835;28;20036;-70
2023/03/05 00:50:03;;;;;;;5.68;2.40;;;3.20;99.90;;;;;;5027746;28;20101;-71
2023/03/05 00:52:28;;;;;;;8.93;2.60;;;3.20;99.90;;;;;;5044446;28;20036;-71
2023/03/05 00:54:54;;;;;;;8.00;2.45;;;3.20;99.90;;;;;;5031141;28;20049;-71
2023/03/05 00:57:19;;;;;;;4.65;2.50;;;3.20;99.90;;;;;;5044212;28;20045;-70
2023/03/05 00:59:45;;;;;;;7.28;2.30;;;3.20;99.90;;;;;;5027589;28;20472;-70
2023/03/05 01:02:11;;;;;;;6.65;2.38;;;3.30;99.90;;;;;;5044016;28;20047;-71
2023/03/05 01:04:37;;;;;;;9.60;2.60;;;3.30;99.90;;;;;;5029147;28;20447;-70
2023/03/05 01:07:03;;;;;;;8.82;2.30;;;3.30;99.90;;;;;;5043763;28;20044;-70
2023/03/05 01:09:29;;;;;;;6.90;2.40;;;3.40;99.90;;;;;;5027645;28;20567;-70
2023/03/05 01:11:55;;;;;;;8.40;2.60;;;3.40;99.90;;;;;;5044276;28;20370;-70
2023/03/05 01:14:21;;;;;;;8.98;2.65;;;3.40;99.90;;;;;;5024660;28;20049;-70
2023/03/05 01:16:47;;;;;;;9.73;2.72;;;3.40;99.90;;;;;;5024322;28;20036;-70
2023/03/05 01:19:14;;;;;;;7.57;2.33;;;3.40;99.90;;;;;;5045368;28;20072;-70
2023/03/05 01:21:41;;;;;;;9.13;2.42;;;3.40;99.90;;;;;;5044042;28;20044;-71
2023/03/05 01:24:07;;;;;;;6.35;2.20;;;3.30;99.90;;;;;;5026633;28;20155;-70
2023/03/05 01:26:33;;;;;;;6.80;2.45;;;3.30;99.90;;;;;;5041587;28;20044;-70
2023/03/05 01:28:59;;;;;;;5.65;2.40;;;3.20;99.90;;;;;;5026621;28;20119;-70
2023/03/05 01:31:26;;;;;;;6.78;2.70;;;3.10;99.90;;;;;;5030942;28;20145;-71
2023/03/05 01:33:52;;;;;;;6.70;2.50;;;3.10;99.90;;;;;;5027752;28;20571;-71
2023/03/05 01:36:20;;;;;;;5.97;2.30;;;3.10;99.90;;;;;;5042547;28;20120;-71
2023/03/05 01:38:47;;;;;;;11.38;2.60;;;3.00;99.90;;;;;;5044079;28;20103;-72
2023/03/05 01:41:14;;;;;;;9.60;2.92;;;2.90;99.90;;;;;;5039812;28;20812;-71
2023/03/05 01:43:41;;;;;;;6.40;2.40;;;2.90;99.90;;;;;;5042794;28;20036;-71
2023/03/05 01:46:25;;;;;;;6.30;2.85;;;2.90;99.90;;;;;;5041955;28;20090;-72
2023/03/05 01:49:00;;;;;;;4.05;2.38;;;2.80;99.90;;;;;;5025800;28;20111;-71
2023/03/05 01:51:29;;;;;;;14.07;3.50;;;2.80;99.90;;;;;;5025987;28;20045;-71
2023/03/05 01:53:57;;;;;;;10.95;2.83;;;2.80;99.90;;;;;;5043806;28;20082;-71
2023/03/05 01:56:23;;;;;;;7.22;2.60;;;2.80;99.90;;;;;;5043083;28;20052;-71
2023/03/05 01:58:49;;;;;;;4.82;2.28;;;2.90;99.90;;;;;;5040552;28;20550;-71
2023/03/05 02:01:15;;;;;;;7.68;2.30;;;3.00;99.90;;;;;;5043476;28;20704;-71
2023/03/05 02:03:41;;;;;;;9.23;2.10;;;3.10;99.90;;;;;;5027293;28;20036;-71
2023/03/05 02:06:07;;;;;;;10.80;2.30;;;3.00;99.90;;;;;;5043975;28;20040;-71
2023/03/05 02:08:33;;;;;;;7.72;2.33;;;3.00;99.90;;;;;;5028160;28;20040;-71
2023/03/05 02:11:00;;;;;;;5.07;2.00;;;3.00;99.90;;;;;;5043958;28;20036;-71
2023/03/05 02:13:32;;;;;;;4.68;1.90;;;2.90;99.90;;;;;;5045446;28;20463;-71
2023/03/05 02:15:59;;;;;;;4.43;2.30;;;2.90;99.90;;;;;;5045611;28;20053;-71
2023/03/05 02:18:25;;;;;;;7.10;2.22;;;2.80;99.90;;;;;;5043397;28;20373;-71
2023/03/05 02:20:57;;;;;;;8.07;2.38;;;2.80;99.90;;;;;;5046368;28;20043;-71
2023/03/05 02:23:31;;;;;;;4.78;2.10;;;2.80;99.90;;;;;;5031501;28;20051;-71
2023/03/05 02:25:57;;;;;;;4.18;2.00;;;2.80;99.90;;;;;;5060193;28;20061;-71
2023/03/05 02:28:31;;;;;;;6.13;2.08;;;2.80;99.90;;;;;;5051144;28;20048;-71
2023/03/05 02:30:57;;;;;;;5.50;2.13;;;2.80;99.90;;;;;;5046515;28;20053;-71
2023/03/05 02:33:23;;;;;;;6.80;2.47;;;2.80;99.90;;;;;;5047502;28;20094;-71
2023/03/05 02:35:49;;;;;;;7.30;2.28;;;2.90;99.90;;;;;;5051601;28;20098;-71
2023/03/05 02:38:18;;;;;;;7.38;2.28;;;2.90;99.90;;;;;;5050098;28;20582;-71
2023/03/05 02:40:43;;;;;;;7.97;2.25;;;2.90;99.90;;;;;;5065560;28;20460;-71
2023/03/05 02:43:10;;;;;;;7.68;2.30;;;2.90;99.90;;;;;;5068116;28;20414;-71
2023/03/05 02:45:37;;;;;;;11.18;2.83;;;3.00;99.90;;;;;;5050553;28;20032;-71
2023/03/05 02:48:02;;;;;;;11.68;2.72;;;3.00;99.90;;;;;;5052904;28;20040;-71
2023/03/05 02:50:30;;;;;;;9.23;2.50;;;3.00;99.90;;;;;;5049302;28;20519;-71
2023/03/05 02:52:56;;;;;;;7.93;2.60;;;3.00;99.90;;;;;;5049177;28;20041;-71
2023/03/05 02:55:21;;;;;;;6.70;2.50;;;3.00;99.90;;;;;;5049274;28;20074;-71
2023/03/05 02:57:47;;;;;;;6.28;2.80;;;3.00;99.90;;;;;;5052591;28;20404;-71
2023/03/05 03:00:13;;;;;;;10.15;2.45;;;3.00;99.90;;;;;;5044078;28;20758;-71
2023/03/05 03:02:38;;;;;;;9.20;2.60;;;3.00;99.90;;;;;;5030235;28;20439;-72
2023/03/05 03:05:05;;;;;;;8.52;2.70;;;3.00;99.90;;;;;;5044317;28;20094;-72
2023/03/05 03:07:30;;;;;;;11.30;2.97;;;3.00;99.90;;;;;;5049797;28;20040;-71
2023/03/05 03:09:56;;;;;;;8.70;2.67;;;3.00;99.90;;;;;;5044300;28;20051;-71
2023/03/05 03:12:22;;;;;;;7.63;2.33;;;3.00;99.90;;;;;;5046483;28;20052;-71
2023/03/05 03:14:47;;;;;;;7.28;2.50;;;2.90;99.90;;;;;;5031809;28;20044;-71
2023/03/05 03:17:15;;;;;;;5.78;2.30;;;2.90;99.90;;;;;;5032487;28;20047;-71
2023/03/05 03:19:42;;;;;;;6.53;2.25;;;2.90;99.90;;;;;;5027137;28;20060;-71
2023/03/05 03:22:09;;;;;;;12.15;2.70;;;2.90;99.90;;;;;;5046021;28;20044;-72
2023/03/05 03:24:36;;;;;;;7.72;2.20;;;2.80;99.90;;;;;;5032273;28;20048;-71
2023/03/05 03:27:03;;;;;;;8.32;2.40;;;2.80;99.90;;;;;;5044758;28;20079;-71
2023/03/05 03:29:29;;;;;;;6.65;2.40;;;2.80;99.90;;;;;;5043955;28;20055;-72
2023/03/05 03:31:55;;;;;;;4.43;2.13;;;2.80;99.90;;;;;;5043645;28;20527;-72
2023/03/05 03:34:20;;;;;;;6.15;2.08;;;2.80;99.90;;;;;;5044854;28;20082;-71
2023/03/05 03:36:47;;;;;;;6.35;2.10;;;2.80;99.90;;;;;;5043466;28;20045;-71
2023/03/05 03:39:13;;;;;;;8.82;2.20;;;2.80;99.90;;;;;;5064223;28;20074;-72
2023/03/05 03:41:45;;;;;;;5.65;2.20;;;2.70;99.90;;;;;;5027343;28;20032;-71
2023/03/05 03:44:12;;;;;;;8.32;2.40;;;2.70;99.90;;;;;;5047579;28;20056;-71
2023/03/05 03:46:38;;;;;;;6.93;2.30;;;2.70;99.90;;;;;;5041442;28;20363;-71
2023/03/05 03:49:07;;;;;;;9.95;2.55;;;2.70;99.90;;;;;;5045377;28;20148;-71
2023/03/05 03:51:32;;;;;;;5.57;2.33;;;2.70;99.90;;;;;;5044911;28;20860;-71
2023/03/05 03:53:59;;;;;;;9.75;2.30;;;2.70;99.90;;;;;;5028758;28;20032;-71
2023/03/05 03:56:24;;;;;;;9.43;3.45;;;2.80;99.90;;;;;;5044400;28;20405;-72
2023/03/05 03:58:51;;;;;;;8.23;2.50;;;2.80;99.90;;;;;;5043232;28;20131;-71
2023/03/05 04:01:18;;;;;;;7.53;2.53;;;2.90;99.90;;;;;;5027279;28;20037;-71
2023/03/05 04:03:44;;;;;;;6.57;2.40;;;2.90;99.90;;;;;;5042209;28;20420;-71
2023/03/05 04:06:12;;;;;;;6.45;2.42;;;3.00;99.90;;;;;;5043986;28;20083;-71
2023/03/05 04:08:38;;;;;;;8.75;2.60;;;3.00;99.90;;;;;;5031128;28;20122;-71
2023/03/05 04:11:04;;;;;;;8.70;2.65;;;3.00;99.90;;;;;;5043027;28;20488;-72
2023/03/05 04:13:30;;;;;;;8.35;2.58;;;3.10;99.90;;;;;;5046394;28;20036;-72
2023/03/05 04:15:55;;;;;;;8.55;2.67;;;3.00;99.90;;;;;;5028564;28;20218;-71
2023/03/05 04:18:21;;;;;;;5.05;2.50;;;3.10;99.90;;;;;;5028585;28;20039;-71
2023/03/05 04:20:47;;;;;;;7.55;2.17;;;3.00;99.90;;;;;;5027025;28;20489;-71
2023/03/05 04:23:13;;;;;;;6.22;2.38;;;3.00;99.90;;;;;;5043009;28;20135;-71
2023/03/05 04:25:39;;;;;;;6.90;2.50;;;3.00;99.90;;;;;;5063276;28;20117;-71
2023/03/05 04:28:04;;;;;;;6.60;2.45;;;3.00;99.90;;;;;;5046597;28;20525;-71
2023/03/05 04:30:30;;;;;;;4.85;2.05;;;3.00;99.90;;;;;;5062233;28;20035;-71
2023/03/05 04:32:56;;;;;;;7.55;2.40;;;3.00;99.90;;;;;;5061212;28;20063;-71
2023/03/05 04:35:22;;;;;;;6.25;2.47;;;3.00;99.90;;;;;;5047759;28;20396;-71
2023/03/05 04:37:47;;;;;;;8.27;2.33;;;2.90;99.90;;;;;;5060594;28;20035;-71
2023/03/05 04:40:13;;;;;;;6.00;2.40;;;2.80;99.90;;;;;;5049274;28;20895;-72
2023/03/05 04:42:39;;;;;;;6.47;2.00;;;2.80;99.90;;;;;;5043697;28;20032;-71
2023/03/05 04:45:06;;;;;;;9.75;2.30;;;2.80;99.90;;;;;;5062398;28;20468;-71
2023/03/05 04:47:32;;;;;;;5.40;2.00;;;2.80;99.90;;;;;;5045602;28;20044;-71
2023/03/05 04:49:58;;;;;;;7.75;2.22;;;2.80;99.90;;;;;;5048341;28;20040;-71
2023/03/05 04:52:24;;;;;;;4.50;1.88;;;2.80;99.90;;;;;;5046984;28;20097;-72
2023/03/05 04:54:49;;;;;;;4.72;2.05;;;2.70;99.90;;;;;;5063715;28;20147;-71
2023/03/05 04:57:15;;;;;;;11.00;2.47;;;2.70;99.90;;;;;;5062331;28;20048;-71
2023/03/05 04:59:41;;;;;;;6.15;2.38;;;2.60;99.90;;;;;;5064671;28;20040;-71
2023/03/05 05:02:06;;;;;;;4.30;2.15;;;2.60;99.90;;;;;;5061385;28;20407;-71
2023/03/05 05:04:32;;;;;;;6.25;2.00;;;2.50;99.90;;;;;;5049906;28;20582;-72
2023/03/05 05:06:58;;;;;;;6.80;2.28;;;2.50;99.90;;;;;;5062972;28;20047;-71
2023/03/05 05:09:24;;;;;;;5.38;2.05;;;2.50;99.90;;;;;;5046639;28;20488;-72
2023/03/05 05:11:50;;;;;;;4.13;2.28;;;2.50;99.90;;;;;;5061595;28;20086;-72
2023/03/05 05:14:17;;;;;;;3.88;1.88;;;2.60;99.90;;;;;;5063403;28;20079;-71
2023/03/05 05:16:42;;;;;;;7.53;2.17;;;2.60;99.90;;;;;;5063952;28;20120;-72
2023/03/05 05:19:08;;;;;;;3.80;1.75;;;2.70;99.90;;;;;;5048979;28;20821;-70
2023/03/05 05:21:34;;;;;;;4.38;1.83;;;2.70;99.90;;;;;;5061682;28;20483;-70
2023/03/05 05:23:59;;;;;;;7.53;2.17;;;2.70;99.90;;;;;;5062867;28;20082;-71
2023/03/05 05:26:26;;;;;;;5.03;1.85;;;2.70;99.90;;;;;;5065051;28;20044;-71
2023/03/05 05:28:52;;;;;;;7.25;2.00;;;2.70;99.90;;;;;;5061428;28;20044;-71
2023/03/05 05:31:18;;;;;;;3.88;1.83;;;2.70;99.90;;;;;;5063129;28;20040;-71
2023/03/05 05:33:44;;;;;;;8.85;2.17;;;2.70;99.90;;;;;;5061203;28;20035;-70
2023/03/05 05:36:13;;;;;;;5.78;2.00;;;2.70;99.90;;;;;;5047805;28;20304;-70
2023/03/05 05:38:39;;;;;;;7.57;1.90;;;2.70;99.90;;;;;;5047560;28;20036;-70
2023/03/05 05:41:11;;;;;;;8.80;2.20;;;2.60;99.90;;;;;;5059394;28;20567;-70
2023/03/05 05:43:37;;;;;;;4.75;2.22;;;2.60;99.90;;;;;;5056564;28;20043;-71
2023/03/05 05:46:06;;;;;;;3.72;1.80;;;2.60;99.90;;;;;;5069251;28;20044;-71
2023/03/05 05:48:33;;;;;;;8.43;2.08;;;2.50;99.90;;;;;;5063711;28;20403;-71
2023/03/05 05:51:05;;;;;;;6.07;2.22;;;2.40;99.90;;;;;;5084676;28;20063;-71
2023/03/05 05:53:30;;;;;;;3.40;1.90;;;2.40;99.90;;;;;;5062220;28;20058;-71
2023/03/05 05:55:56;;;;;;;5.85;2.13;;;2.40;99.90;;;;;;5066705;28;20032;-71
2023/03/05 05:58:22;;;;;;;6.68;2.22;;;2.30;99.90;;;;;;5066701;28;20090;-72
2023/03/05 06:00:47;;;;;;;7.43;2.10;;;2.30;99.90;;;;;;5067805;28;20492;-71
2023/03/05 06:03:13;;;;;;;7.85;2.20;;;2.20;99.90;;;;;;5064783;28;20097;-71
2023/03/05 06:05:40;;;;;;;6.38;2.22;;;2.20;99.90;;;;;;5066958;28;20048;-71
2023/03/05 06:08:06;;;;;;;7.55;2.35;;;2.20;99.90;;;;;;5064704;28;20048;-72
2023/03/05 06:10:31;;;;;;;9.52;2.17;;;2.30;99.90;;;;;;5048848;28;20044;-71
2023/03/05 06:12:57;;;;;;;9.63;2.53;;;2.30;99.90;;;;;;5065083;28;20044;-71
2023/03/05 06:15:23;;;;;;;6.45;2.00;;;2.30;99.90;;;;;;5064789;28;20031;-72
2023/03/05 06:17:49;;;;;;;10.75;2.47;;;2.30;99.90;;;;;;5067490;28;20126;-71
2023/03/05 06:20:14;;;;;;;5.80;2.20;;;2.30;99.90;;;;;;5051205;28;20040;-71
2023/03/05 06:22:40;;;;;;;7.70;2.30;;;2.20;99.90;;;;;;5051454;28;20127;-71
2023/03/05 06:25:07;;;;;;;7.32;2.20;;;2.20;99.90;;;;;;5047470;28;20056;-71
2023/03/05 06:27:36;;;;;;;8.80;2.30;;;2.20;99.90;;;;;;5029900;28;21978;-71
2023/03/05 06:30:03;;;;;;;6.63;2.03;;;2.20;99.90;;;;;;5046877;28;20377;-71
2023/03/05 06:32:28;;;;;;;4.65;2.03;;;2.10;99.90;;;;;;5080886;28;20044;-72
2023/03/05 06:34:54;;;;;;;4.45;2.15;;;2.10;99.90;;;;;;5047550;28;20617;-71
2023/03/05 06:37:20;;;;;;;8.60;2.45;;;2.10;99.90;;;;;;5032579;28;20044;-71
2023/03/05 06:39:45;;;;;;;6.30;2.15;;;2.10;99.90;;;;;;5046338;28;20500;-71
2023/03/05 06:42:11;;;;;;;7.80;2.33;;;2.10;99.90;;;;;;5031398;28;20032;-71
2023/03/05 06:44:39;;;;;;;5.18;2.20;;;2.10;99.90;;;;;;5066702;28;20041;-71
2023/03/05 06:47:09;;;;;;;8.32;2.50;;;2.10;99.90;;;;;;5046740;28;20050;-71
2023/03/05 06:49:35;;;;;;;12.63;2.78;;;2.10;99.90;;;;;;5046536;28;20043;-71
2023/03/05 06:52:02;;;;;;;7.43;2.50;;;2.10;99.90;;;;;;5023836;28;20046;-71
2023/03/05 06:54:28;;;;;;;10.43;2.33;;;2.20;99.90;;;;;;5025810;28;20412;-71
2023/03/05 06:56:53;;;;;;;7.05;2.60;;;2.20;99.90;;;;;;5026423;28;20071;-71
2023/03/05 06:59:20;;;;;;;7.35;2.65;;;2.20;99.90;;;;;;5027980;28;20102;-71
2023/03/05 07:01:46;;;;;;;11.82;2.95;;;2.30;99.90;;;;;;5028039;28;20033;-71
2023/03/05 07:04:13;;;;;;;9.23;2.55;;;2.30;99.90;;;;;;5032256;28;20067;-71
2023/03/05 07:06:40;;;;;;;8.68;2.40;;;2.30;99.90;;;;;;5031894;28;20036;-71
2023/03/05 07:09:09;;;;;;;8.10;2.35;;;2.40;99.90;;;;;;5026555;28;20072;-71
2023/03/05 07:11:35;;;;;;;9.75;2.80;;;2.40;99.90;;;;;;5043599;28;20036;-71
2023/03/05 07:14:00;;;;;;;13.15;2.72;;;2.50;99.90;;;;;;5065858;28;20563;-71
2023/03/05 07:16:29;;;;;;;10.40;2.47;;;2.60;99.90;;;;;;5044284;28;20048;-71
2023/03/05 07:18:56;;;;;;;10.85;2.28;;;2.60;99.90;;;;;;5061219;28;20041;-71
2023/03/05 07:21:28;;;;;;;7.18;2.50;;;2.70;99.90;;;;;;5047083;28;20040;-71
2023/03/05 07:23:55;;;;;;;12.50;3.30;;;2.80;99.90;;;;;;5051801;28;21051;-71
2023/03/05 07:26:22;;;;;;;7.85;2.67;;;2.90;99.90;;;;;;5065400;28;20044;-72
2023/03/05 07:28:47;;;;;;;10.10;2.55;;;3.00;99.90;;;;;;5050157;28;20048;-71
2023/03/05 07:31:18;;;;;;;9.50;2.97;;;3.00;99.90;;;;;;5061533;28;20039;-72
2023/03/05 07:33:48;;;;;;;6.75;2.50;;;3.20;99.90;;;;;;5063257;28;20044;-71
2023/03/05 07:36:14;;;;;;;6.85;2.60;;;3.30;99.90;;;;;;5062015;28;20086;-71
2023/03/05 07:38:40;;;;;;;6.65;2.47;;;3.40;99.90;;;;;;5060625;28;20059;-71
2023/03/05 07:41:09;;;;;;;6.85;2.42;;;3.50;99.90;;;;;;5065128;28;20040;-71
2023/03/05 07:43:35;;;;;;;7.07;2.50;;;3.60;99.90;;;;;;5061295;28;20075;-71
2023/03/05 07:46:04;;;;;;;7.63;2.80;;;3.60;99.90;;;;;;5050105;28;20032;-71
2023/03/05 07:48:30;;;;;;;8.88;2.63;;;3.70;99.90;;;;;;5079013;28;20044;-71
2023/03/05 07:51:00;;;;;;;11.70;2.95;;;3.70;99.90;;;;;;5063956;28;20093;-71
2023/03/05 07:53:26;;;;;;;9.35;2.50;;;3.70;99.90;;;;;;5045942;28;20039;-71
2023/03/05 07:55:51;;;;;;;6.68;2.40;;;3.70;99.90;;;;;;5050609;28;20059;-71
2023/03/05 07:58:17;;;;;;;10.32;2.83;;;3.80;99.90;;;;;;5047486;28;20097;-71
2023/03/05 08:00:43;;;;;;;6.82;2.50;;;3.80;99.90;;;;;;5065286;28;20062;-71
2023/03/05 08:03:08;;;;;;;8.35;2.88;;;3.80;99.90;;;;;;5048588;28;20112;-72
2023/03/05 08:05:37;;;;;;;4.88;2.47;;;3.90;99.90;;;;;;5048216;28;20039;-71
2023/03/05 08:08:03;;;;;;;7.75;2.75;;;3.90;99.90;;;;;;5047097;28;20036;-71
2023/03/05 08:10:28;;;;;;;8.20;2.55;;;3.90;99.90;;;;;;5061620;28;20470;-71
2023/03/05 08:12:54;;;;;;;8.25;2.40;;;4.00;99.90;;;;;;5059124;28;20050;-71
2023/03/05 08:15:20;;;;;;;7.13;2.45;;;4.00;99.90;;;;;;5044974;28;20063;-71
2023/03/05 08:17:45;;;;;;;7.30;2.60;;;4.10;99.90;;;;;;5060044;28;20109;-71
2023/03/05 08:20:11;;;;;;;6.60;2.35;;;4.10;99.90;;;;;;5058164;28;20447;-71
2023/03/05 08:22:37;;;;;;;8.52;2.50;;;4.20;99.90;;;;;;5057036;28;20086;-71
2023/03/05 08:25:04;;;;;;;7.10;2.50;;;4.30;99.90;;;;;;5044209;28;20048;-72
2023/03/05 08:27:31;;;;;;;7.32;2.38;;;4.40;99.90;;;;;;5062619;28;20043;-71
2023/03/05 08:29:56;;;;;;;12.23;3.17;;;4.50;99.90;;;;;;5062258;28;20097;-71
2023/03/05 08:32:22;;;;;;;7.72;2.22;;;4.50;99.90;;;;;;5046864;28;20048;-71
2023/03/05 08:34:48;;;;;;;9.25;2.22;;;4.60;99.90;;;;;;5061329;28;20047;-71
2023/03/05 08:37:14;;;;;;;7.72;2.35;;;4.70;99.90;;;;;;5047833;28;20067;-71
2023/03/05 08:39:39;;;;;;;6.05;2.00;;;4.80;99.90;;;;;;5041217;28;20104;-71
2023/03/05 08:42:05;;;;;;;9.55;2.97;;;4.80;99.90;;;;;;5060450;28;20036;-72
2023/03/05 08:44:31;;;;;;;9.70;2.60;;;5.00;99.90;;;;;;5044408;28;20047;-71
2023/03/05 08:46:57;;;;;;;4.43;1.98;;;5.20;99.90;;;;;;5040019;28;21277;-71
2023/03/05 08:49:22;;;;;;;10.02;2.28;;;5.40;99.90;;;;;;5057741;28;20681;-72
2023/03/05 08:51:48;;;;;;;4.90;1.83;;;5.50;99.90;;;;;;5061191;28;20130;-72
2023/03/05 08:54:14;;;;;;;8.50;2.33;;;5.90;99.90;;;;;;5061489;28;20036;-72
2023/03/05 08:56:39;;;;;;;5.07;2.13;;;6.20;99.90;;;;;;5042576;28;20043;-71
2023/03/05 08:59:05;;;;;;;7.45;2.33;;;6.30;99.90;;;;;;5044818;28;20089;-72
2023/03/05 09:01:31;;;;;;;8.88;2.17;;;6.40;99.90;;;;;;5041818;28;20036;-71
2023/03/05 09:03:58;;;;;;;7.43;2.05;;;6.50;99.90;;;;;;5059745;28;20083;-71
2023/03/05 09:06:25;;;;;;;4.97;1.90;;;6.50;99.90;;;;;;5060281;28;20054;-72
2023/03/05 09:08:50;;;;;;;7.28;2.40;;;6.50;99.90;;;;;;5060939;28;20040;-71
2023/03/05 09:11:16;;;;;;;7.82;2.67;;;6.60;99.90;;;;;;5059945;28;20055;-72
2023/03/05 09:13:42;;;;;;;5.70;2.20;;;6.80;99.90;;;;;;5061689;28;20050;-72
2023/03/05 09:16:11;;;;;;;5.97;1.92;;;7.00;99.90;;;;;;5046236;28;20032;-72
2023/03/05 09:18:39;;;;;;;9.32;2.28;;;7.00;99.90;;;;;;5062747;28;20047;-72
2023/03/05 09:21:11;;;;;;;6.65;2.13;;;7.00;99.90;;;;;;5059286;28;20171;-72
2023/03/05 09:23:37;;;;;;;8.40;2.00;;;6.90;99.90;;;;;;5061647;28;20053;-72
2023/03/05 09:26:05;;;;;;;10.82;2.30;;;6.80;99.90;;;;;;5065224;28;20044;-72
2023/03/05 09:28:31;;;;;;;8.68;2.20;;;6.60;99.90;;;;;;5047519;28;20043;-72
2023/03/05 09:30:56;;;;;;;6.55;2.30;;;6.50;99.90;;;;;;5049159;28;20044;-72
2023/03/05 09:33:22;;;;;;;5.82;2.03;;;6.40;99.90;;;;;;5064074;28;20043;-72
2023/03/05 09:35:47;;;;;;;6.03;1.70;;;6.30;99.90;;;;;;5053093;28;20044;-72
2023/03/05 09:38:13;;;;;;;6.93;1.90;;;6.30;99.90;;;;;;5048767;28;20043;-71
2023/03/05 09:40:48;;;;;;;8.88;2.75;;;6.20;99.90;;;;;;5067574;28;20032;-71
2023/03/05 09:43:13;;;;;;;;;;;6.30;99.90;;;;;;5067953;28;20046;-72
2023/03/05 09:46:07;;;;;;;10.23;2.13;;;6.40;99.90;;;;;;5060501;28;19920;-71
2023/03/05 09:49:20;;;;;;;4.80;1.73;;;6.50;99.90;;;;;;5046368;28;20079;-72
2023/03/05 09:51:50;;;;;;;7.20;1.70;;;6.50;99.90;;;;;;4965969;28;20038;-72
2023/03/05 09:54:20;;;;;;;6.47;2.03;;;6.40;99.90;;;;;;4967634;28;20042;-72
2023/03/05 09:57:00;;;;;;;5.50;1.85;;;6.30;99.90;;;;;;5015773;28;20056;-71
2023/03/05 09:59:46;;;;;;;4.07;1.70;;;6.20;99.90;;;;;;5060001;28;20070;-72
2023/03/05 10:02:21;;;;;;;5.18;1.83;;;6.10;99.90;;;;;;5049461;28;20155;-71
2023/03/05 10:04:56;;;;;;;4.75;1.70;;;6.00;99.90;;;;;;5080596;28;20450;-72
2023/03/05 10:07:33;;;;;;;4.63;1.63;;;6.10;99.90;;;;;;5055136;28;20043;-72
2023/03/05 10:10:03;;;;;;;5.38;2.03;;;6.50;99.90;;;;;;5048710;28;20047;-70
2023/03/05 10:12:43;;;;;;;3.65;1.70;;;6.80;99.90;;;;;;5053852;28;20040;-70
2023/03/05 10:15:37;;;;;;;5.43;2.03;;;7.10;99.90;;;;;;5061415;28;20385;-70
2023/03/05 10:18:28;;;;;;;5.30;1.55;;;7.20;99.90;;;;;;5060369;28;20094;-70
2023/03/05 10:21:08;;;;;;;5.40;1.60;;;7.20;99.90;;;;;;5061037;28;20411;-70
2023/03/05 10:23:40;;;;;;;5.05;1.58;;;7.40;99.90;;;;;;5060202;28;20404;-70
2023/03/05 10:26:26;;;;;;;5.15;1.73;;;7.60;99.90;;;;;;5058248;28;20488;-70
2023/03/05 10:29:30;;;;;;;4.40;1.80;;;7.70;99.90;;;;;;5047426;28;20075;-71
2023/03/05 10:32:04;;;;;;;8.60;1.88;;;7.80;99.90;;;;;;4967042;28;20424;-71
2023/03/05 10:34:57;;;;;;;4.97;2.10;;;7.90;99.90;;;;;;4966795;28;21823;-70
2023/03/05 10:37:32;;;;;;;5.05;1.60;;;8.00;99.90;;;;;;5035835;28;20090;-71
2023/03/05 10:40:09;;;;;;;5.05;1.67;;;8.10;99.90;;;;;;5057357;28;20032;-70
2023/03/05 10:42:59;;;;;;;5.50;1.67;;;8.10;99.90;;;;;;5054037;28;20114;-71
2023/03/05 10:45:32;;;;;;;5.75;1.67;;;7.80;99.90;;;;;;5063549;28;20132;-70
2023/03/05 10:48:06;;;;;;;3.95;1.60;;;7.70;99.90;;;;;;5032189;28;20040;-70
2023/03/05 10:50:41;;;;;;;3.28;1.70;;;7.60;99.90;;;;;;5058502;28;20046;-71
2023/03/05 10:53:26;;;;;;;3.72;1.30;;;7.70;99.90;;;;;;5059577;28;20036;-71
2023/03/05 10:55:55;;;;;;;5.72;1.75;;;7.70;99.90;;;;;;5047823;28;20402;-70
2023/03/05 10:58:21;;;;;;;4.13;1.70;;;7.70;99.90;;;;;;5053776;28;20040;-71
2023/03/05 11:01:11;;;;;;;3.95;1.45;;;8.00;99.90;;;;;;5058598;28;20200;-71
2023/03/05 11:03:57;;;;;;;3.65;1.55;;;8.20;99.90;;;;;;5060132;28;20389;-70
2023/03/05 11:06:38;;;;;;;7.00;1.55;;;8.10;99.90;;;;;;5047447;28;20373;-71
2023/03/05 11:09:28;;;;;;;5.97;1.50;;;8.20;99.90;;;;;;5037533;28;20040;-71
2023/03/05 11:12:15;;;;;;;5.30;1.67;;;8.60;99.90;;;;;;5050060;28;20050;-71
2023/03/05 11:15:03;;;;;;;4.85;1.50;;;8.90;99.90;;;;;;5057356;28;20051;-71
2023/03/05 11:17:49;;;;;;;6.63;1.50;;;9.00;99.90;;;;;;5048397;28;20070;-71
2023/03/05 11:20:33;;;;;;;5.78;1.80;;;9.30;99.90;;;;;;5062705;28;20036;-71
2023/03/05 11:23:03;;;;;;;5.53;1.73;;;9.40;99.90;;;;;;5041769;28;20123;-71
2023/03/05 11:25:30;;;;;;;6.03;2.15;;;8.90;99.90;;;;;;5042853;28;20056;-70
2023/03/05 11:27:57;;;;;;;4.50;1.60;;;8.30;99.90;;;;;;5061703;28;20047;-71
2023/03/05 11:30:33;;;;;;;2.72;1.48;;;8.00;99.90;;;;;;5062067;28;20119;-70
2023/03/05 11:33:13;;;;;;;5.13;1.90;;;7.90;99.90;;;;;;5057487;28;20063;-71
2023/03/05 11:35:41;;;;;;;5.85;1.60;;;8.10;99.90;;;;;;5041321;28;20040;-71
2023/03/05 11:38:17;;;;;;;4.18;1.60;;;8.30;99.90;;;;;;5039506;28;20066;-71
2023/03/05 11:40:43;;;;;;;6.13;1.70;;;8.70;99.90;;;;;;5075941;28;20043;-71
2023/03/05 11:43:15;;;;;;;6.32;1.50;;;8.90;99.90;;;;;;5044662;28;20028;-71
2023/03/05 11:45:42;;;;;;;7.68;2.00;;;8.80;99.90;;;;;;5032970;28;20048;-71
2023/03/05 11:48:14;;;;;;;4.40;1.35;;;8.80;99.90;;;;;;5060015;28;20115;-71
2023/03/05 11:50:42;;;;;;;3.33;1.63;;;9.00;99.90;;;;;;5057560;28;20124;-71
2023/03/05 11:53:19;;;;;;;4.88;1.48;;;9.30;99.90;;;;;;5034724;28;20396;-71
2023/03/05 11:56:23;;;;;;;3.58;1.30;;;9.50;99.90;;;;;;5045213;28;20032;-71
2023/03/05 11:59:00;;;;;;;7.15;1.70;;;9.20;99.90;;;;;;5059154;28;20101;-71
2023/03/05 12:01:29;;;;;;;4.57;1.30;;;8.70;99.90;;;;;;5038045;28;20127;-71
2023/03/05 12:03:55;;;;;;;4.28;1.65;;;8.40;99.90;;;;;;5064792;28;20079;-71
2023/03/05 12:06:42;;;;;;;5.10;1.60;;;8.30;99.90;;;;;;5052185;28;20074;-71
2023/03/05 12:09:25;;;;;;;3.05;1.33;;;8.30;99.90;;;;;;5087709;28;20032;-71
2023/03/05 12:11:57;;;;;;;3.38;1.30;;;8.40;99.90;;;;;;5062693;28;20065;-71
2023/03/05 12:14:50;;;;;;;3.70;1.55;;;8.40;99.90;;;;;;5054217;28;20043;-71
2023/03/05 12:17:36;;;;;;;3.72;1.50;;;8.40;99.90;;;;;;5067796;28;20493;-71
2023/03/05 12:20:12;;;;;;;4.03;1.65;;;8.30;99.90;;;;;;5049687;28;20101;-71
2023/03/05 12:22:40;;;;;;;7.63;1.55;;;8.20;99.90;;;;;;5085010;28;20036;-71
2023/03/05 12:25:24;;;;;;;3.53;1.60;;;8.20;99.90;;;;;;5066452;28;20134;-71
2023/03/05 12:27:51;;;;;;;7.28;1.70;;;8.10;99.90;;;;;;5043637;28;20404;-71
2023/03/05 12:30:40;;;;;;;6.25;1.63;;;8.00;99.90;;;;;;5047130;28;20086;-71
2023/03/05 12:33:40;;;;;;;6.15;1.88;;;7.80;99.90;;;;;;5066349;28;20043;-71
2023/03/05 12:36:21;;;;;;;6.85;1.70;;;7.80;99.90;;;;;;5064350;28;20782;-71
2023/03/05 12:38:50;;;;;;;9.30;2.13;;;7.70;99.90;;;;;;5066708;28;20035;-71
2023/03/05 12:41:22;;;;;;;2.80;1.63;;;7.70;99.90;;;;;;5066192;28;20055;-71
2023/03/05 12:44:06;;;;;;;6.65;2.13;;;7.70;99.90;;;;;;5067739;28;20051;-71
2023/03/05 12:46:35;;;;;;;5.90;1.77;;;7.60;99.90;;;;;;5045901;28;20511;-71
2023/03/05 12:49:20;;;;;;;6.20;1.77;;;7.60;99.90;;;;;;5051382;28;20050;-71
2023/03/05 12:51:47;;;;;;;7.00;2.03;;;7.50;99.90;;;;;;5081764;28;20047;-72
2023/03/05 12:54:25;;;;;;;4.43;1.52;;;7.60;99.90;;;;;;5084736;28;20040;-71
2023/03/05 12:56:53;;;;;;;4.13;1.60;;;7.90;99.90;;;;;;5064945;28;20083;-71
2023/03/05 12:59:22;;;;;;;5.13;1.90;;;8.00;99.90;;;;;;5049847;28;20047;-71
2023/03/05 13:01:57;;;;;;;3.92;1.70;;;7.90;99.90;;;;;;5045309;28;20373;-71
2023/03/05 13:04:27;;;;;;;5.00;2.13;;;7.90;99.90;;;;;;5061592;28;20043;-71
2023/03/05 13:07:03;;;;;;;3.53;1.60;;;7.80;99.90;;;;;;5063608;28;20048;-71